Time;durP1;ratioP1;P1;durP2;ratioP2;P2;SDS_P1;SDS_P2;PMS_P1;PMS_P2;Temp;Humidity;BMP_temperature;BMP_pressure;BME280_temperature;BME280_humidity;BME280_pressure;Samples;Min_cycle;Max_cycle;Signal;HPM_P1;HPM_P2
2022/07/16 00:02:27;;;;;;;7.60;4.00;;;;;;;;;;10247319;28;20072;-62
2022/07/16 00:07:26;;;;;;;6.47;4.00;;;;;;;;;;10246784;28;20052;-62
2022/07/16 00:12:24;;;;;;;8.13;4.00;;;;;;;;;;10250430;28;20068;-63
2022/07/16 00:17:22;;;;;;;5.85;4.20;;;;;;;;;;10249044;28;20073;-63
2022/07/16 00:22:22;;;;;;;7.22;4.28;;;;;;;;;;10245829;28;20065;-64
2022/07/16 00:27:20;;;;;;;8.68;4.45;;;;;;;;;;10246821;28;20083;-64
2022/07/16 00:32:19;;;;;;;7.90;4.20;;;;;;;;;;10237629;28;20059;-64
2022/07/16 00:37:17;;;;;;;16.65;4.90;;;;;;;;;;10232911;28;20079;-63
2022/07/16 00:42:17;;;;;;;10.88;3.90;;;;;;;;;;10234381;28;20088;-63
2022/07/16 00:47:15;;;;;;;11.05;4.45;;;;;;;;;;10234946;28;20419;-63
2022/07/16 00:52:14;;;;;;;9.20;4.30;;;;;;;;;;10240132;28;20128;-63
2022/07/16 00:57:13;;;;;;;11.93;3.85;;;;;;;;;;10242792;28;20318;-63
2022/07/16 01:02:12;;;;;;;5.57;4.07;;;;;;;;;;10234267;28;20539;-63
2022/07/16 01:07:11;;;;;;;13.18;4.35;;;;;;;;;;10234304;28;20510;-63
2022/07/16 01:12:09;;;;;;;8.55;3.72;;;;;;;;;;10239924;28;20033;-63
2022/07/16 01:17:08;;;;;;;9.02;4.50;;;;;;;;;;10247008;28;20275;-63
2022/07/16 01:22:07;;;;;;;11.93;4.30;;;;;;;;;;10246233;28;20068;-63
2022/07/16 01:27:07;;;;;;;9.10;4.60;;;;;;;;;;10167600;28;20491;-62
2022/07/16 01:32:06;;;;;;;9.70;4.15;;;;;;;;;;10167308;28;20503;-62
2022/07/16 01:37:05;;;;;;;11.57;3.65;;;;;;;;;;10159977;28;20050;-62
2022/07/16 01:42:05;;;;;;;5.63;3.65;;;;;;;;;;10164759;28;20160;-64
2022/07/16 01:47:06;;;;;;;12.60;4.38;;;;;;;;;;10167456;28;20053;-66
2022/07/16 01:52:05;;;;;;;8.43;4.65;;;;;;;;;;10162751;28;20066;-66
2022/07/16 01:57:03;;;;;;;8.35;3.85;;;;;;;;;;10154196;28;20446;-65
2022/07/16 02:02:02;;;;;;;7.05;3.42;;;;;;;;;;10154311;28;20082;-66
2022/07/16 02:07:01;;;;;;;3.72;2.67;;;;;;;;;;10146244;28;20069;-66
2022/07/16 02:12:00;;;;;;;5.72;2.95;;;;;;;;;;10162766;28;20508;-65
2022/07/16 02:16:58;;;;;;;7.63;3.20;;;;;;;;;;10162415;28;20479;-65
2022/07/16 02:21:56;;;;;;;13.18;2.88;;;;;;;;;;10172942;28;20100;-65
2022/07/16 02:26:56;;;;;;;7.70;2.22;;;;;;;;;;10251430;28;20091;-65
2022/07/16 02:31:54;;;;;;;4.40;2.58;;;;;;;;;;10251722;28;20072;-66
2022/07/16 02:36:53;;;;;;;5.63;2.70;;;;;;;;;;10240417;28;20092;-66
2022/07/16 02:41:51;;;;;;;7.82;2.58;;;;;;;;;;10239412;28;20050;-65
2022/07/16 02:46:51;;;;;;;3.47;2.55;;;;;;;;;;10256477;28;20068;-65
2022/07/16 02:51:49;;;;;;;3.80;2.60;;;;;;;;;;10251538;28;20076;-65
2022/07/16 02:56:48;;;;;;;6.70;2.95;;;;;;;;;;10250705;28;20045;-65
2022/07/16 03:01:46;;;;;;;10.68;2.97;;;;;;;;;;10248216;28;20478;-65
2022/07/16 03:06:46;;;;;;;7.75;3.35;;;;;;;;;;10247174;28;20040;-65
2022/07/16 03:11:44;;;;;;;3.42;2.58;;;;;;;;;;10246486;28;20052;-66
2022/07/16 03:16:42;;;;;;;7.22;2.55;;;;;;;;;;10250996;28;20041;-65
2022/07/16 03:21:41;;;;;;;5.60;2.55;;;;;;;;;;10238882;28;20075;-64
2022/07/16 03:26:44;;;;;;;3.85;2.72;;;;;;;;;;10249962;28;20475;-64
2022/07/16 03:31:42;;;;;;;7.25;2.60;;;;;;;;;;10249266;28;20064;-64
2022/07/16 03:36:40;;;;;;;8.98;2.80;;;;;;;;;;10247036;28;21556;-64
2022/07/16 03:41:39;;;;;;;6.13;2.90;;;;;;;;;;10234909;28;20080;-65
2022/07/16 03:46:39;;;;;;;3.95;2.60;;;;;;;;;;10229896;28;20041;-65
2022/07/16 03:51:38;;;;;;;4.55;2.72;;;;;;;;;;10237425;28;20452;-65
2022/07/16 03:56:36;;;;;;;17.83;10.07;;;;;;;;;;10238563;28;20084;-66
2022/07/16 04:01:35;;;;;;;7.00;2.88;;;;;;;;;;10247017;28;20073;-64
2022/07/16 04:06:34;;;;;;;5.25;2.90;;;;;;;;;;10237758;28;20058;-64
2022/07/16 04:11:33;;;;;;;5.15;2.70;;;;;;;;;;10248374;28;20095;-65
2022/07/16 04:16:31;;;;;;;5.80;3.50;;;;;;;;;;10242472;28;20069;-65
2022/07/16 04:21:29;;;;;;;6.15;4.13;;;;;;;;;;10242788;28;20069;-64
2022/07/16 04:26:29;;;;;;;3.45;2.58;;;;;;;;;;10247017;28;20060;-65
2022/07/16 04:31:27;;;;;;;3.47;2.65;;;;;;;;;;10239417;28;20069;-63
2022/07/16 04:36:26;;;;;;;8.57;3.45;;;;;;;;;;10240485;28;20056;-65
2022/07/16 04:41:24;;;;;;;5.63;3.08;;;;;;;;;;10234899;28;20575;-66
2022/07/16 04:46:24;;;;;;;3.55;2.75;;;;;;;;;;10234878;28;20140;-66
2022/07/16 04:51:22;;;;;;;7.65;3.65;;;;;;;;;;10234708;28;20053;-65
2022/07/16 04:56:20;;;;;;;6.25;2.63;;;;;;;;;;10248024;28;20052;-65
2022/07/16 05:01:19;;;;;;;7.75;2.95;;;;;;;;;;10246071;28;20084;-65
2022/07/16 05:06:19;;;;;;;9.90;3.10;;;;;;;;;;10245648;28;20048;-65
2022/07/16 05:11:17;;;;;;;11.55;3.17;;;;;;;;;;10248793;28;20056;-65
2022/07/16 05:16:16;;;;;;;7.72;2.83;;;;;;;;;;10247635;28;20082;-66
2022/07/16 05:21:14;;;;;;;5.70;3.28;;;;;;;;;;10234740;28;20085;-65
2022/07/16 05:26:19;;;;;;;11.48;3.33;;;;;;;;;;10234516;28;20057;-65
2022/07/16 05:31:18;;;;;;;5.57;3.25;;;;;;;;;;10233706;28;20041;-64
2022/07/16 05:36:18;;;;;;;6.97;3.08;;;;;;;;;;10246779;28;20080;-64
2022/07/16 05:41:16;;;;;;;3.17;2.90;;;;;;;;;;10246149;28;20087;-65
2022/07/16 05:46:16;;;;;;;5.00;2.80;;;;;;;;;;10247517;28;20060;-64
2022/07/16 05:51:14;;;;;;;6.22;3.08;;;;;;;;;;10234194;28;20072;-65
2022/07/16 05:56:13;;;;;;;9.35;3.28;;;;;;;;;;10241268;28;20072;-64
2022/07/16 06:01:12;;;;;;;8.75;3.78;;;;;;;;;;10240526;28;20081;-65
2022/07/16 06:06:11;;;;;;;4.15;2.90;;;;;;;;;;10245123;28;20514;-64
2022/07/16 06:11:10;;;;;;;4.88;3.08;;;;;;;;;;10241466;28;20081;-64
2022/07/16 06:16:13;;;;;;;;;;;;;;;;;;10237933;28;20153;-66
2022/07/16 06:21:13;;;;;;;6.18;4.53;;;;;;;;;;10241060;28;19975;-65
2022/07/16 06:26:11;;;;;;;4.35;3.70;;;;;;;;;;10250159;28;20085;-65
2022/07/16 06:31:10;;;;;;;4.47;3.80;;;;;;;;;;10252448;28;20478;-66
2022/07/16 06:36:08;;;;;;;6.28;3.15;;;;;;;;;;10248074;28;20522;-65
2022/07/16 06:41:08;;;;;;;3.95;3.40;;;;;;;;;;10248366;28;20088;-66
2022/07/16 06:46:13;;;;;;;11.38;3.80;;;;;;;;;;10252998;28;20092;-66
2022/07/16 06:51:12;;;;;;;6.10;3.60;;;;;;;;;;10259182;28;20525;-65
2022/07/16 06:56:12;;;;;;;5.97;4.20;;;;;;;;;;10252117;28;20485;-66
2022/07/16 07:01:11;;;;;;;8.85;3.10;;;;;;;;;;10253185;28;20081;-65
2022/07/16 07:06:09;;;;;;;7.35;4.22;;;;;;;;;;10252260;28;20046;-65
2022/07/16 07:11:08;;;;;;;6.03;3.72;;;;;;;;;;10242664;28;20521;-65
2022/07/16 07:16:08;;;;;;;5.53;3.30;;;;;;;;;;10251236;28;20076;-64
2022/07/16 07:21:06;;;;;;;5.93;3.88;;;;;;;;;;10251408;28;20076;-65
2022/07/16 07:26:04;;;;;;;10.65;3.92;;;;;;;;;;10250827;28;20058;-66
2022/07/16 07:31:03;;;;;;;9.20;4.43;;;;;;;;;;10249177;28;20477;-68
2022/07/16 07:36:02;;;;;;;7.07;3.60;;;;;;;;;;10238343;28;20045;-65
2022/07/16 07:41:01;;;;;;;9.93;3.90;;;;;;;;;;10237837;28;20096;-65
2022/07/16 07:45:59;;;;;;;7.03;3.47;;;;;;;;;;10237728;28;20069;-66
2022/07/16 07:50:58;;;;;;;8.05;3.30;;;;;;;;;;10247439;28;20084;-66
2022/07/16 07:55:58;;;;;;;4.43;3.47;;;;;;;;;;10248565;28;20132;-64
2022/07/16 08:00:56;;;;;;;9.70;4.28;;;;;;;;;;10247538;28;20073;-66
2022/07/16 08:06:15;;;;;;;4.13;3.40;;;;;;;;;;10231739;28;20081;-65
2022/07/16 08:11:14;;;;;;;9.65;5.57;;;;;;;;;;10225560;28;20080;-65
2022/07/16 08:16:13;;;;;;;7.93;4.90;;;;;;;;;;10231323;28;20069;-65
2022/07/16 08:21:11;;;;;;;5.85;3.20;;;;;;;;;;10240736;28;20077;-65
2022/07/16 08:26:10;;;;;;;5.97;3.50;;;;;;;;;;10239772;28;20073;-65
2022/07/16 08:31:09;;;;;;;10.35;3.40;;;;;;;;;;10236051;28;20513;-65
2022/07/16 08:36:08;;;;;;;5.22;3.40;;;;;;;;;;10235708;28;20056;-65
2022/07/16 08:41:06;;;;;;;8.52;4.53;;;;;;;;;;10235439;28;20092;-65
2022/07/16 08:46:05;;;;;;;4.97;3.40;;;;;;;;;;10249141;28;20076;-65
2022/07/16 08:51:07;;;;;;;6.32;2.90;;;;;;;;;;10235498;28;20045;-66
2022/07/16 08:56:06;;;;;;;5.90;3.70;;;;;;;;;;10235303;28;20071;-66
2022/07/16 09:01:05;;;;;;;8.55;3.80;;;;;;;;;;10235207;28;20498;-66
2022/07/16 09:06:04;;;;;;;7.88;3.83;;;;;;;;;;10235798;28;20069;-65
2022/07/16 09:11:17;;;;;;;6.88;4.07;;;;;;;;;;10235650;28;20076;-65
2022/07/16 09:16:27;;;;;;;8.38;4.07;;;;;;;;;;10244231;28;20073;-65
2022/07/16 09:21:27;;;;;;;7.25;4.03;;;;;;;;;;10232323;28;20456;-67
2022/07/16 09:26:27;;;;;;;6.80;3.92;;;;;;;;;;10235516;28;20140;-66
2022/07/16 09:31:33;;;;;;;4.70;3.03;;;;;;;;;;10238621;28;20072;-66
2022/07/16 09:36:33;;;;;;;4.28;3.35;;;;;;;;;;10228614;28;20081;-64
2022/07/16 09:41:40;;;;;;;4.93;2.88;;;;;;;;;;10246638;28;20084;-65
2022/07/16 09:46:39;;;;;;;3.47;2.75;;;;;;;;;;10249844;28;20072;-65
2022/07/16 09:51:46;;;;;;;9.38;3.45;;;;;;;;;;10243100;28;20084;-65
2022/07/16 09:56:45;;;;;;;10.23;4.82;;;;;;;;;;10233684;28;20072;-68
2022/07/16 10:01:43;;;;;;;10.43;3.90;;;;;;;;;;10239635;28;20080;-69
2022/07/16 10:06:43;;;;;;;8.20;3.70;;;;;;;;;;10239121;28;20077;-66
2022/07/16 10:11:43;;;;;;;9.77;3.72;;;;;;;;;;10246409;28;20072;-65
2022/07/16 10:16:43;;;;;;;13.25;4.00;;;;;;;;;;10245100;28;20493;-66
2022/07/16 10:22:02;;;;;;;9.15;4.50;;;;;;;;;;10245186;28;20084;-67
2022/07/16 10:27:15;;;;;;;5.97;3.10;;;;;;;;;;10241950;28;20080;-65
2022/07/16 10:32:30;;;;;;;8.57;4.30;;;;;;;;;;10235842;28;20176;-65
2022/07/16 10:37:30;;;;;;;8.13;4.00;;;;;;;;;;10241460;28;20072;-66
2022/07/16 10:42:29;;;;;;;6.43;4.53;;;;;;;;;;10243170;28;20080;-66
2022/07/16 10:47:48;;;;;;;5.63;4.20;;;;;;;;;;10243181;28;20076;-66
2022/07/16 10:52:48;;;;;;;9.20;4.30;;;;;;;;;;10248070;28;20169;-67
2022/07/16 10:57:47;;;;;;;11.57;3.63;;;;;;;;;;10247575;28;20064;-66
2022/07/16 11:02:47;;;;;;;6.50;3.05;;;;;;;;;;10241664;28;20083;-66
2022/07/16 11:08:07;;;;;;;9.40;3.20;;;;;;;;;;10236714;28;20474;-65
2022/07/16 11:13:11;;;;;;;6.32;2.72;;;;;;;;;;10236494;28;20052;-66
2022/07/16 11:18:16;;;;;;;6.55;3.22;;;;;;;;;;10236930;28;20115;-67
2022/07/16 11:23:15;;;;;;;8.35;2.85;;;;;;;;;;10245581;28;20089;-65
2022/07/16 11:28:14;;;;;;;7.18;3.92;;;;;;;;;;10244452;28;20554;-66
2022/07/16 11:33:30;;;;;;;8.65;3.00;;;;;;;;;;10236765;28;20076;-66
2022/07/16 11:38:29;;;;;;;7.63;3.88;;;;;;;;;;10237455;28;20069;-65
2022/07/16 11:43:28;;;;;;;19.73;3.42;;;;;;;;;;10241292;28;20072;-66
2022/07/16 11:48:35;;;;;;;3.72;2.85;;;;;;;;;;10243654;28;20069;-64
2022/07/16 11:53:36;;;;;;;7.22;2.35;;;;;;;;;;10239130;28;20069;-67
2022/07/16 11:58:35;;;;;;;5.25;3.67;;;;;;;;;;10241973;28;20069;-66
2022/07/16 12:03:36;;;;;;;7.00;4.38;;;;;;;;;;10238033;28;20087;-65
2022/07/16 12:08:36;;;;;;;5.22;3.25;;;;;;;;;;10246306;28;20065;-67
2022/07/16 12:13:38;;;;;;;10.70;3.10;;;;;;;;;;10245356;28;20100;-68
2022/07/16 12:18:57;;;;;;;6.60;2.50;;;;;;;;;;10247797;28;20085;-68
2022/07/16 12:23:57;;;;;;;6.82;3.08;;;;;;;;;;10239330;28;20089;-67
2022/07/16 12:28:55;;;;;;;209.77;191.18;;;;;;;;;;10235183;28;20061;-65
2022/07/16 12:33:54;;;;;;;5.53;2.60;;;;;;;;;;10235647;28;20076;-65
2022/07/16 12:38:55;;;;;;;15.68;8.68;;;;;;;;;;10235051;28;20471;-63
2022/07/16 12:43:56;;;;;;;7.07;4.05;;;;;;;;;;10231055;28;20073;-65
2022/07/16 12:48:56;;;;;;;5.63;4.07;;;;;;;;;;10227046;28;20069;-67
2022/07/16 12:53:54;;;;;;;7.63;3.75;;;;;;;;;;10229325;28;20083;-67
2022/07/16 12:58:52;;;;;;;5.13;3.90;;;;;;;;;;10229590;28;20069;-67
2022/07/16 13:03:53;;;;;;;6.50;4.32;;;;;;;;;;10240982;28;20276;-66
2022/07/16 13:08:51;;;;;;;7.35;4.68;;;;;;;;;;10229787;28;20072;-66
2022/07/16 13:13:50;;;;;;;6.70;4.05;;;;;;;;;;10239532;28;20075;-67
2022/07/16 13:18:49;;;;;;;8.45;4.05;;;;;;;;;;10240598;28;20061;-66
2022/07/16 13:23:50;;;;;;;9.48;4.43;;;;;;;;;;10235868;28;20088;-66
2022/07/16 13:28:48;;;;;;;3.90;3.33;;;;;;;;;;10243595;28;20075;-64
2022/07/16 13:33:47;;;;;;;10.70;2.55;;;;;;;;;;10236555;28;20072;-65
2022/07/16 13:38:47;;;;;;;3.55;3.13;;;;;;;;;;10244523;28;20077;-67
2022/07/16 13:43:47;;;;;;;9.85;2.50;;;;;;;;;;10236120;28;20091;-68
2022/07/16 13:48:46;;;;;;;8.35;5.25;;;;;;;;;;10237523;28;20091;-66
2022/07/16 13:53:44;;;;;;;6.82;2.90;;;;;;;;;;10233077;28;20113;-65
2022/07/16 13:58:43;;;;;;;6.47;2.53;;;;;;;;;;10242778;28;20596;-65
2022/07/16 14:03:43;;;;;;;6.88;3.53;;;;;;;;;;10232279;28;20487;-66
2022/07/16 14:08:41;;;;;;;6.45;2.53;;;;;;;;;;10247592;28;20069;-67
2022/07/16 14:13:40;;;;;;;4.45;2.47;;;;;;;;;;10238631;28;20048;-67
2022/07/16 14:18:38;;;;;;;5.55;2.97;;;;;;;;;;10240306;28;20072;-67
2022/07/16 14:23:38;;;;;;;13.40;4.35;;;;;;;;;;10240072;28;20085;-67
2022/07/16 14:28:36;;;;;;;14.18;4.82;;;;;;;;;;10245859;28;20073;-67
2022/07/16 14:33:35;;;;;;;10.93;2.83;;;;;;;;;;10256154;28;20081;-67
2022/07/16 14:38:34;;;;;;;8.75;3.47;;;;;;;;;;10241029;28;20502;-67
2022/07/16 14:43:33;;;;;;;13.45;4.63;;;;;;;;;;10239590;28;20076;-67
2022/07/16 14:48:32;;;;;;;6.25;4.88;;;;;;;;;;10239584;28;20076;-67
2022/07/16 14:53:30;;;;;;;7.55;2.95;;;;;;;;;;10250158;28;20048;-66
2022/07/16 14:58:28;;;;;;;6.95;4.13;;;;;;;;;;10240823;28;20045;-68
2022/07/16 15:03:29;;;;;;;8.93;3.75;;;;;;;;;;10238657;28;20073;-67
2022/07/16 15:08:27;;;;;;;6.55;3.83;;;;;;;;;;10238444;28;20034;-67
2022/07/16 15:13:25;;;;;;;5.72;2.92;;;;;;;;;;10250081;28;20061;-67
2022/07/16 15:18:25;;;;;;;11.73;4.15;;;;;;;;;;10244116;28;20080;-67
2022/07/16 15:23:25;;;;;;;8.85;3.78;;;;;;;;;;10251138;28;20119;-67
2022/07/16 15:28:24;;;;;;;5.63;2.97;;;;;;;;;;10245520;28;20080;-67
2022/07/16 15:33:41;;;;;;;10.30;4.13;;;;;;;;;;10242624;28;20172;-66
2022/07/16 15:38:50;;;;;;;5.78;3.38;;;;;;;;;;10244639;28;20506;-67
2022/07/16 15:43:48;;;;;;;8.32;4.32;;;;;;;;;;10244909;28;20104;-67
2022/07/16 15:48:47;;;;;;;12.43;11.00;;;;;;;;;;10238695;28;20041;-66
2022/07/16 15:53:45;;;;;;;8.27;4.28;;;;;;;;;;10236665;28;20089;-67
2022/07/16 15:58:45;;;;;;;10.25;3.80;;;;;;;;;;10236836;28;20081;-67
2022/07/16 16:03:44;;;;;;;8.95;3.33;;;;;;;;;;10248298;28;20093;-67
2022/07/16 16:08:42;;;;;;;8.80;3.40;;;;;;;;;;10248467;28;20041;-67
2022/07/16 16:13:41;;;;;;;9.93;3.72;;;;;;;;;;10236577;28;20076;-68
2022/07/16 16:18:41;;;;;;;5.95;3.90;;;;;;;;;;10235694;28;20038;-66
2022/07/16 16:23:39;;;;;;;5.38;3.33;;;;;;;;;;10229589;28;20085;-66
2022/07/16 16:28:37;;;;;;;5.93;3.13;;;;;;;;;;10240177;28;20072;-67
2022/07/16 16:33:35;;;;;;;11.27;2.90;;;;;;;;;;10238339;28;20049;-66
2022/07/16 16:38:35;;;;;;;6.55;3.60;;;;;;;;;;10234728;28;20045;-66
2022/07/16 16:43:33;;;;;;;13.13;3.75;;;;;;;;;;10233590;28;20416;-65
2022/07/16 16:48:32;;;;;;;5.72;2.83;;;;;;;;;;10245801;28;20064;-65
2022/07/16 16:53:30;;;;;;;10.38;3.28;;;;;;;;;;10247273;28;20095;-66
2022/07/16 16:58:31;;;;;;;10.38;2.95;;;;;;;;;;10246303;28;20057;-63
2022/07/16 17:03:32;;;;;;;6.35;2.60;;;;;;;;;;10241672;28;20069;-64
2022/07/16 17:08:30;;;;;;;8.13;3.55;;;;;;;;;;10239086;28;20455;-64
2022/07/16 17:13:28;;;;;;;4.93;2.70;;;;;;;;;;10248178;28;20076;-63
2022/07/16 17:18:28;;;;;;;6.97;3.10;;;;;;;;;;10247901;28;20076;-64
2022/07/16 17:23:27;;;;;;;4.60;2.80;;;;;;;;;;10246765;28;20113;-65
2022/07/16 17:28:25;;;;;;;5.50;3.10;;;;;;;;;;10247924;28;20068;-64
2022/07/16 17:33:24;;;;;;;6.43;2.50;;;;;;;;;;10239366;28;20455;-64
2022/07/16 17:38:24;;;;;;;5.38;3.20;;;;;;;;;;10239629;28;20046;-64
2022/07/16 17:43:22;;;;;;;3.20;2.88;;;;;;;;;;10241780;28;20045;-64
2022/07/16 17:48:20;;;;;;;6.07;2.80;;;;;;;;;;10238185;28;20494;-63
2022/07/16 17:53:19;;;;;;;4.63;2.58;;;;;;;;;;10251333;28;20056;-63
2022/07/16 17:58:18;;;;;;;5.93;2.92;;;;;;;;;;10250374;28;20091;-64
2022/07/16 18:03:17;;;;;;;5.40;3.30;;;;;;;;;;10243431;28;20084;-64
2022/07/16 18:08:15;;;;;;;7.63;2.80;;;;;;;;;;10238054;28;20094;-64
2022/07/16 18:13:14;;;;;;;4.72;3.30;;;;;;;;;;10238927;28;20451;-63
2022/07/16 18:18:14;;;;;;;10.68;3.60;;;;;;;;;;10242686;28;20065;-64
2022/07/16 18:23:12;;;;;;;7.97;2.92;;;;;;;;;;10242856;28;20076;-64
2022/07/16 18:28:11;;;;;;;5.03;2.78;;;;;;;;;;10240466;28;20072;-64
2022/07/16 18:33:15;;;;;;;3.35;2.60;;;;;;;;;;10247370;28;20083;-62
2022/07/16 18:38:14;;;;;;;5.60;3.03;;;;;;;;;;10249612;28;20064;-64
2022/07/16 18:43:13;;;;;;;7.07;2.72;;;;;;;;;;10249693;28;20065;-63
2022/07/16 18:48:12;;;;;;;6.55;2.72;;;;;;;;;;10248648;28;20075;-64
2022/07/16 18:53:11;;;;;;;5.38;2.95;;;;;;;;;;10249365;28;20508;-63
2022/07/16 18:58:11;;;;;;;5.93;3.40;;;;;;;;;;10247746;28;20072;-63
2022/07/16 19:03:09;;;;;;;5.32;2.80;;;;;;;;;;10245686;28;20077;-63
2022/07/16 19:08:08;;;;;;;6.78;3.88;;;;;;;;;;10247563;28;20076;-64
2022/07/16 19:13:08;;;;;;;5.18;2.53;;;;;;;;;;10244461;28;20076;-64
2022/07/16 19:18:07;;;;;;;3.58;1.83;;;;;;;;;;10247685;28;20091;-62
2022/07/16 19:23:10;;;;;;;3.55;2.70;;;;;;;;;;10247784;28;20085;-63
2022/07/16 19:28:10;;;;;;;4.22;2.88;;;;;;;;;;10247896;28;20069;-63
2022/07/16 19:33:08;;;;;;;7.07;2.55;;;;;;;;;;10248000;28;20077;-63
2022/07/16 19:38:06;;;;;;;4.90;2.33;;;;;;;;;;10246738;28;20073;-64
2022/07/16 19:43:05;;;;;;;4.82;2.15;;;;;;;;;;10247017;28;20095;-63
2022/07/16 19:48:05;;;;;;;4.40;2.35;;;;;;;;;;10246476;28;20076;-63
2022/07/16 19:53:04;;;;;;;4.32;2.08;;;;;;;;;;10236072;28;20080;-63
2022/07/16 19:58:03;;;;;;;5.85;2.65;;;;;;;;;;10246393;28;20065;-63
2022/07/16 20:03:05;;;;;;;2.80;2.40;;;;;;;;;;10246380;28;20084;-63
2022/07/16 20:08:23;;;;;;;3.20;2.30;;;;;;;;;;10244197;28;20089;-63
2022/07/16 20:13:22;;;;;;;2.83;2.42;;;;;;;;;;10243923;28;20060;-63
2022/07/16 20:18:22;;;;;;;4.57;2.30;;;;;;;;;;10244315;28;20095;-63
2022/07/16 20:23:21;;;;;;;3.35;2.53;;;;;;;;;;10243657;28;20080;-63
2022/07/16 20:28:22;;;;;;;2.78;2.58;;;;;;;;;;10243405;28;20084;-63
2022/07/16 20:33:21;;;;;;;6.28;3.28;;;;;;;;;;10243790;28;20076;-63
2022/07/16 20:38:20;;;;;;;5.88;2.88;;;;;;;;;;10240081;28;20073;-63
2022/07/16 20:43:18;;;;;;;3.80;2.95;;;;;;;;;;10245181;28;20546;-63
2022/07/16 20:48:16;;;;;;;6.70;2.70;;;;;;;;;;10244780;28;20489;-63
2022/07/16 20:53:16;;;;;;;5.35;2.38;;;;;;;;;;10244615;28;20069;-63
2022/07/16 20:58:15;;;;;;;3.97;2.20;;;;;;;;;;10244512;28;20535;-63
2022/07/16 21:03:13;;;;;;;3.33;2.80;;;;;;;;;;10242302;28;20100;-63
2022/07/16 21:08:23;;;;;;;3.65;2.42;;;;;;;;;;10241983;28;20076;-64
2022/07/16 21:13:29;;;;;;;11.27;3.28;;;;;;;;;;10244651;28;20517;-64
2022/07/16 21:18:28;;;;;;;4.45;3.00;;;;;;;;;;10235129;28;20069;-64
2022/07/16 21:23:26;;;;;;;4.00;2.75;;;;;;;;;;10243748;28;20083;-62
2022/07/16 21:28:25;;;;;;;2.67;2.42;;;;;;;;;;10243664;28;20478;-63
2022/07/16 21:33:24;;;;;;;3.28;2.38;;;;;;;;;;10242143;28;20084;-63
2022/07/16 21:38:22;;;;;;;3.67;2.50;;;;;;;;;;10244332;28;20069;-63
2022/07/16 21:43:21;;;;;;;12.10;3.75;;;;;;;;;;10241626;28;20072;-63
2022/07/16 21:48:20;;;;;;;5.20;2.92;;;;;;;;;;10242548;28;20069;-64
2022/07/16 21:53:19;;;;;;;3.00;2.60;;;;;;;;;;10244202;28;20124;-64
2022/07/16 21:58:17;;;;;;;3.78;2.72;;;;;;;;;;10243593;28;20123;-63
2022/07/16 22:03:15;;;;;;;3.65;2.50;;;;;;;;;;10242585;28;20091;-63
2022/07/16 22:08:15;;;;;;;5.40;2.35;;;;;;;;;;10243246;28;20076;-63
2022/07/16 22:13:13;;;;;;;5.43;2.92;;;;;;;;;;10242985;28;20080;-63
2022/07/16 22:18:12;;;;;;;4.65;2.85;;;;;;;;;;10243203;28;20064;-63
2022/07/16 22:23:10;;;;;;;7.60;2.75;;;;;;;;;;10242195;28;20477;-63
2022/07/16 22:28:10;;;;;;;5.47;2.58;;;;;;;;;;10242730;28;20073;-62
2022/07/16 22:33:08;;;;;;;4.32;3.17;;;;;;;;;;10244276;28;20487;-63
2022/07/16 22:38:07;;;;;;;7.15;3.17;;;;;;;;;;10249946;28;20068;-63
2022/07/16 22:43:06;;;;;;;4.05;2.92;;;;;;;;;;10245099;28;20319;-63
2022/07/16 22:48:06;;;;;;;5.00;2.88;;;;;;;;;;10248614;28;20076;-63
2022/07/16 22:53:04;;;;;;;5.55;3.03;;;;;;;;;;10249537;28;20064;-63
2022/07/16 22:58:04;;;;;;;6.60;3.28;;;;;;;;;;10248976;28;20076;-63
2022/07/16 23:03:02;;;;;;;5.72;3.42;;;;;;;;;;10249362;28;20478;-63
2022/07/16 23:08:02;;;;;;;4.75;2.92;;;;;;;;;;10248647;28;20195;-64
2022/07/16 23:13:00;;;;;;;3.83;2.63;;;;;;;;;;10248949;28;20479;-63
2022/07/16 23:17:59;;;;;;;3.10;2.80;;;;;;;;;;10248326;28;20076;-63
2022/07/16 23:22:57;;;;;;;4.70;2.70;;;;;;;;;;10248920;28;20088;-64
2022/07/16 23:27:59;;;;;;;11.05;2.97;;;;;;;;;;10244716;28;20111;-64
2022/07/16 23:32:57;;;;;;;4.22;2.88;;;;;;;;;;10248083;28;20079;-64
2022/07/16 23:37:56;;;;;;;5.32;2.90;;;;;;;;;;10236529;28;20046;-64
2022/07/16 23:42:55;;;;;;;2.67;2.40;;;;;;;;;;10236409;28;20510;-64
2022/07/16 23:47:55;;;;;;;3.47;2.63;;;;;;;;;;10235607;28;20565;-64
2022/07/16 23:52:53;;;;;;;9.70;2.53;;;;;;;;;;10245697;28;20087;-63
2022/07/16 23:57:51;;;;;;;3.50;2.53;;;;;;;;;;10246754;28;20077;-63
